Eseniya — UBYI3 — position and weather

sailwx.info

Track history (hours):
 
Tides and Currents Weather Stations Pressure Air Temp Water Temp Dewpoint Dewpoint Depression Visibility Wind Speed Wind Dir Waves Ship Positions

Eseniya

Last reported at 2017-Sep-20 02:00 UTC. Time now 2017-Sep-20 01:56 UTC.
Position N 51°25' E 003°36'.

Length 99 m; draft 6.1 m.

Type: Cargo ship. MMSI: 273356870.

Date/timePositionNaut miles runAvg speedWind from/ knotsBaromVisibWave heightAir tempDewpointWater temp
2017-Sep-20 02:00N 51°25' E 003°36'510.3
2017-Sep-20 01:30N 51°25' E 003°28'612.9
2017-Sep-20 01:00N 51°24' E 003°18'613.0
2017-Sep-20 00:30N 51°23' E 003°08'612.8
2017-Sep-20 00:00N 51°22' E 002°57'613.0
2017-Sep-19 23:30N 51°22' E 002°47'711.5
2017-Sep-19 22:54N 51°22' E 002°36'612.4
2017-Sep-19 22:27N 51°21' E 002°27'612.2
2017-Sep-19 22:00N 51°18' E 002°19'611.5
2017-Sep-19 21:28N 51°15' E 002°11'510.8
2017-Sep-19 21:00N 51°12' E 002°04'510.0
2017-Sep-19 20:30N 51°10' E 001°57'5 9.3
2017-Sep-19 20:00N 51°07' E 001°51'4 8.7
2017-Sep-19 19:30N 51°05' E 001°45'4 8.8
2017-Sep-19 19:00N 51°01' E 001°41'4 7.8
2017-Sep-19 18:30N 50°58' E 001°37'4 8.8
2017-Sep-19 18:00N 50°55' E 001°32'11311.0
2017-Sep-19 07:42N 50°06' W 001°09'315.1
2017-Sep-19 07:28N 50°06' W 001°14'715.1
2017-Sep-19 07:00N 50°04' W 001°24'815.2
2017-Sep-19 06:30N 50°02' W 001°36'815.0
2017-Sep-19 06:00N 50°00' W 001°47'714.6
2017-Sep-19 05:30N 49°58' W 001°58'12410.7
2017-Sep-18 17:55N 49°03' W 004°49'511.9
2017-Sep-18 17:28N 49°00' W 004°56'612.0
2017-Sep-18 17:00N 48°58' W 005°04'612.4
2017-Sep-18 16:30N 48°55' W 005°12'612.6
2017-Sep-18 16:00N 48°51' W 005°20'712.5
2017-Sep-18 15:29N 48°48' W 005°29'  
2017-Sep-16 07:58N 39°24' W 009°51'4 8.8
2017-Sep-16 07:30N 39°20' W 009°51'4 8.8
2017-Sep-16 07:00N 39°16' W 009°51'4 8.9
2017-Sep-16 06:31N 39°12' W 009°51'4 8.8
2017-Sep-16 06:00N 39°07' W 009°51'4 8.6
2017-Sep-16 05:30N 39°03' W 009°51'3 5.2
2017-Sep-16 05:01N 39°00' W 009°51'4 8.9
2017-Sep-16 04:30N 38°56' W 009°51'4 8.7
2017-Sep-16 04:00N 38°51' W 009°51'4 8.8
2017-Sep-16 03:31N 38°47' W 009°51'4 8.7
2017-Sep-16 03:00N 38°43' W 009°50'4 8.7
2017-Sep-16 02:31N 38°39' W 009°49'4 8.8
2017-Sep-16 02:01N 38°38' W 009°43'5 9.9
2017-Sep-16 01:31N 38°37' W 009°37'5 9.7
2017-Sep-16 01:00N 38°37' W 009°31'510.1
2017-Sep-16 00:30N 38°37' W 009°24'5 9.5
2017-Sep-16 00:01N 38°39' W 009°19'4 8.9
2017-Sep-15 23:30N 38°41' W 009°14'4 8.9
2017-Sep-15 23:00N 38°41' W 009°08'3 4.2
2017-Sep-15 22:12N 38°40' W 009°04'0 0.0
2017-Sep-15 19:48N 38°40' W 009°04'0 0.0
2017-Sep-15 17:27N 38°40' W 009°04'0 0.0
2017-Sep-15 16:48N 38°40' W 009°04'0 0.0
2017-Sep-15 15:03N 38°40' W 009°04'0 0.0
2017-Sep-15 15:00N 38°40' W 009°04'0 0.0
2017-Sep-15 14:27N 38°40' W 009°04'0 0.0
2017-Sep-15 10:57N 38°40' W 009°04'0 0.0
2017-Sep-15 08:54N 38°40' W 009°04'0 0.0
2017-Sep-15 08:00N 38°40' W 009°04'0 0.0
2017-Sep-15 05:57N 38°40' W 009°04'0 0.0
2017-Sep-15 04:33N 38°40' W 009°04'0 0.0
2017-Sep-15 04:21N 38°40' W 009°04'0 0.0
2017-Sep-15 04:00N 38°40' W 009°04'0 0.0
2017-Sep-15 03:30N 38°40' W 009°04'0 0.0
2017-Sep-15 02:57N 38°40' W 009°04'0 0.0
2017-Sep-15 02:21N 38°40' W 009°04'0 0.0
2017-Sep-15 01:45N 38°40' W 009°04'0 0.0
2017-Sep-15 01:24N 38°40' W 009°04'0 0.0
2017-Sep-15 00:51N 38°40' W 009°04'0 0.0
2017-Sep-15 00:27N 38°40' W 009°04'0 0.0
2017-Sep-14 23:09N 38°40' W 009°04'0 0.0
2017-Sep-14 22:15N 38°40' W 009°04'0 0.0
2017-Sep-14 21:45N 38°40' W 009°04'0 0.0
2017-Sep-14 20:00N 38°40' W 009°04'0 0.0
2017-Sep-14 19:12N 38°40' W 009°04'0 0.0
2017-Sep-14 18:54N 38°40' W 009°04'0 0.0
2017-Sep-14 18:27N 38°40' W 009°04'0 0.0
2017-Sep-14 17:59N 38°40' W 009°04'1 2.0
2017-Sep-14 17:30N 38°40' W 009°05'3 6.6
2017-Sep-14 17:00N 38°41' W 009°10'3 6.9
2017-Sep-14 16:30N 38°41' W 009°14'3 5.4
2017-Sep-14 16:00N 38°41' W 009°17'3 5.4
2017-Sep-14 15:30N 38°39' W 009°20'2 4.5
2017-Sep-14 15:00N 38°39' W 009°23'1 1.4
2017-Sep-14 14:29N 38°40' W 009°24'0 0.1
2017-Sep-14 13:53N 38°40' W 009°24'0 0.0
2017-Sep-14 13:29N 38°40' W 009°24'0 0.0
2017-Sep-14 12:56N 38°40' W 009°24'0 0.0
2017-Sep-14 12:26N 38°40' W 009°24'0 0.0
2017-Sep-14 11:56N 38°40' W 009°24'0 0.0
2017-Sep-14 11:29N 38°40' W 009°24'0 0.0
2017-Sep-14 10:59N 38°40' W 009°24'0 0.1
2017-Sep-14 10:29N 38°40' W 009°23'0 0.0
2017-Sep-14 09:59N 38°40' W 009°23'0 0.1
2017-Sep-14 09:29N 38°40' W 009°23'0 0.1
2017-Sep-14 08:59N 38°40' W 009°24'0 0.0
2017-Sep-14 08:29N 38°40' W 009°23'0 0.0
2017-Sep-14 07:59N 38°40' W 009°24'0 0.0
2017-Sep-14 07:29N 38°40' W 009°24'0 0.0
2017-Sep-14 06:59N 38°40' W 009°24'0 0.0
2017-Sep-14 06:29N 38°40' W 009°24'0 0.0
2017-Sep-14 05:59N 38°40' W 009°24'0 0.1
2017-Sep-14 05:29N 38°40' W 009°24'0 0.1
2017-Sep-14 04:59N 38°40' W 009°24'0 0.0
2017-Sep-14 04:29N 38°40' W 009°24'0 0.1
2017-Sep-14 03:59N 38°40' W 009°24'0 0.1
2017-Sep-14 03:23N 38°40' W 009°24'0 0.0
2017-Sep-14 02:59N 38°40' W 009°24'0 0.0
2017-Sep-14 02:29N 38°40' W 009°24'0 0.0
2017-Sep-14 01:59N 38°40' W 009°24'0 0.0
2017-Sep-14 01:29N 38°40' W 009°24'0 0.0
2017-Sep-14 00:59N 38°40' W 009°24'0 0.0
2017-Sep-14 00:29N 38°40' W 009°24'0 0.0
2017-Sep-13 23:59N 38°40' W 009°24'0 0.0
2017-Sep-13 23:29N 38°40' W 009°24'0 0.0
2017-Sep-13 22:59N 38°40' W 009°24'0 0.0
2017-Sep-13 22:29N 38°40' W 009°24'0 0.0
2017-Sep-13 21:59N 38°40' W 009°24'0 0.0
2017-Sep-13 21:29N 38°40' W 009°24'0 0.0
2017-Sep-13 20:56N 38°40' W 009°24'0 0.0
2017-Sep-13 20:29N 38°40' W 009°24'0 0.0
2017-Sep-13 19:59N 38°40' W 009°24'0 0.0
2017-Sep-13 19:29N 38°40' W 009°24'0 0.0
2017-Sep-13 18:53N 38°40' W 009°24'0 0.0
2017-Sep-13 18:29N 38°40' W 009°24'0 0.0
2017-Sep-13 17:59N 38°40' W 009°24'0 0.0
2017-Sep-13 17:29N 38°40' W 009°24'0 0.0
2017-Sep-13 16:59N 38°40' W 009°24'0 0.0
2017-Sep-13 16:29N 38°40' W 009°24'0 0.0
2017-Sep-13 15:59N 38°40' W 009°24'0 0.0
2017-Sep-13 15:29N 38°40' W 009°24'0 0.0
2017-Sep-13 14:59N 38°40' W 009°24'0 0.0
2017-Sep-13 14:29N 38°40' W 009°23'0 0.0
2017-Sep-13 13:59N 38°40' W 009°23'0 0.0
2017-Sep-13 13:29N 38°40' W 009°23'0 0.0
2017-Sep-13 12:59N 38°40' W 009°23'0 0.0
2017-Sep-13 12:29N 38°40' W 009°23'0 0.0
2017-Sep-13 11:59N 38°40' W 009°23'0 0.0
2017-Sep-13 11:29N 38°40' W 009°23'0 0.0
2017-Sep-13 10:59N 38°40' W 009°23'0 0.0
2017-Sep-13 10:26N 38°40' W 009°23'0 0.1
2017-Sep-13 09:59N 38°40' W 009°24'0 0.0
2017-Sep-13 09:29N 38°40' W 009°24'0 0.0
2017-Sep-13 08:59N 38°40' W 009°24'0 0.0
2017-Sep-13 08:29N 38°40' W 009°24'0 0.0
2017-Sep-13 07:59N 38°40' W 009°24'0 0.0
2017-Sep-13 07:29N 38°40' W 009°24'0 0.0
2017-Sep-13 06:59N 38°40' W 009°24'0 0.0
2017-Sep-13 06:29N 38°40' W 009°23'0 0.1
2017-Sep-13 05:59N 38°40' W 009°24'0 0.1
2017-Sep-13 05:29N 38°40' W 009°24'0 0.1
2017-Sep-13 04:59N 38°40' W 009°24'0 0.0
2017-Sep-13 04:29N 38°40' W 009°24'0 0.0
2017-Sep-13 03:56N 38°40' W 009°24'0 0.1
2017-Sep-13 03:26N 38°40' W 009°24'0 0.0
2017-Sep-13 02:59N 38°40' W 009°24'0 0.0
2017-Sep-13 02:29N 38°40' W 009°24'0 0.0
2017-Sep-13 01:59N 38°40' W 009°24'0 0.0
2017-Sep-13 01:29N 38°40' W 009°24'0 0.0
2017-Sep-13 00:59N 38°40' W 009°24'0 0.0
2017-Sep-13 00:29N 38°40' W 009°24'0 0.0
2017-Sep-12 23:59N 38°40' W 009°24'0 0.1
2017-Sep-12 23:29N 38°40' W 009°24'0 0.0
2017-Sep-12 22:59N 38°40' W 009°24'0 0.1
2017-Sep-12 22:29N 38°40' W 009°24'0 0.0
2017-Sep-12 21:59N 38°40' W 009°24'0 0.0
2017-Sep-12 21:26N 38°40' W 009°24'0 0.0
2017-Sep-12 20:59N 38°40' W 009°24'0 0.0
2017-Sep-12 20:29N 38°40' W 009°24'0 0.0
2017-Sep-12 19:59N 38°40' W 009°24'0 0.0
2017-Sep-12 19:29N 38°40' W 009°24'0 0.1
2017-Sep-12 18:59N 38°40' W 009°24'0 0.0
2017-Sep-12 18:29N 38°40' W 009°24'0 0.0
2017-Sep-12 17:59N 38°40' W 009°24'0 0.0
2017-Sep-12 17:29N 38°40' W 009°24'0 0.0
2017-Sep-12 16:59N 38°40' W 009°24'0 0.0
2017-Sep-12 16:29N 38°40' W 009°23'0 0.0
2017-Sep-12 15:59N 38°40' W 009°24'0 0.0
2017-Sep-12 15:29N 38°40' W 009°23'0 0.0
2017-Sep-12 14:59N 38°40' W 009°23'0 0.0
2017-Sep-12 14:29N 38°40' W 009°23'0 0.0
2017-Sep-12 13:59N 38°40' W 009°24'0 0.0
2017-Sep-12 13:29N 38°40' W 009°24'0 0.0
2017-Sep-12 12:59N 38°40' W 009°24'0 0.0
2017-Sep-12 12:29N 38°40' W 009°24'0 0.0
2017-Sep-12 11:56N 38°40' W 009°24'0 0.1
2017-Sep-12 11:29N 38°40' W 009°24'0 0.0
2017-Sep-12 10:59N 38°40' W 009°24'0 0.0
2017-Sep-12 10:29N 38°40' W 009°24'0 0.0
2017-Sep-12 09:59N 38°40' W 009°24'0 0.0
2017-Sep-12 09:26N 38°40' W 009°24'0 0.0
2017-Sep-12 08:59N 38°40' W 009°24'0 0.0
2017-Sep-12 08:29N 38°40' W 009°24'0 0.0
2017-Sep-12 07:59N 38°40' W 009°24'0 0.0
2017-Sep-12 07:29N 38°40' W 009°24'0 0.0
2017-Sep-12 06:59N 38°40' W 009°24'0 0.0
2017-Sep-12 06:29N 38°40' W 009°24'0 0.0
2017-Sep-12 05:59N 38°40' W 009°24'0 0.0
2017-Sep-12 05:29N 38°40' W 009°24'0 0.0
2017-Sep-12 04:59N 38°40' W 009°24'0 0.0
2017-Sep-12 04:29N 38°40' W 009°24'0 0.0
2017-Sep-12 03:56N 38°40' W 009°24'0 0.0
2017-Sep-12 03:29N 38°40' W 009°24'0 0.0
2017-Sep-12 02:59N 38°40' W 009°24'0 0.0
2017-Sep-12 02:29N 38°40' W 009°24'0 0.0
2017-Sep-12 01:59N 38°40' W 009°24'0 0.0
2017-Sep-12 01:29N 38°40' W 009°24'0 0.0
2017-Sep-12 00:59N 38°40' W 009°24'0 0.0
2017-Sep-12 00:29N 38°40' W 009°24'0 0.1
2017-Sep-11 23:59N 38°40' W 009°24'0 0.0
2017-Sep-11 23:29N 38°40' W 009°24'0 0.0
2017-Sep-11 22:59N 38°40' W 009°24'0 0.0
2017-Sep-11 22:29N 38°40' W 009°24'0 0.0
2017-Sep-11 21:59N 38°40' W 009°24'0 0.0
2017-Sep-11 21:29N 38°40' W 009°24'0 0.0
2017-Sep-11 20:59N 38°40' W 009°24'0 0.0
2017-Sep-11 20:29N 38°40' W 009°24'0 0.1
2017-Sep-11 19:58N 38°40' W 009°24'0 0.0
2017-Sep-11 19:28N 38°40' W 009°24'0 0.0
2017-Sep-11 18:58N 38°40' W 009°24'0 0.1
2017-Sep-11 18:28N 38°40' W 009°23'0 0.1
2017-Sep-11 17:58N 38°40' W 009°23'0 0.0
2017-Sep-11 17:28N 38°40' W 009°23'0 0.0
2017-Sep-11 16:58N 38°40' W 009°23'0 0.0
2017-Sep-11 16:28N 38°40' W 009°23'0 0.0
2017-Sep-11 15:58N 38°40' W 009°23'0 0.0
2017-Sep-11 15:28N 38°40' W 009°23'0 0.0
2017-Sep-11 14:58N 38°40' W 009°23'0 0.0
2017-Sep-11 14:28N 38°40' W 009°23'0 0.0
2017-Sep-11 13:58N 38°40' W 009°23'0 0.0
2017-Sep-11 13:25N 38°40' W 009°23'0 0.1
2017-Sep-11 12:58N 38°40' W 009°23'0 0.0
2017-Sep-11 12:28N 38°40' W 009°23'0 0.0
2017-Sep-11 11:58N 38°40' W 009°23'0 0.0
2017-Sep-11 11:28N 38°40' W 009°23'0 0.0
2017-Sep-11 10:58N 38°40' W 009°23'0 0.0
2017-Sep-11 10:28N 38°40' W 009°23'0 0.1
2017-Sep-11 09:52N 38°40' W 009°24'0 0.1
2017-Sep-11 09:28N 38°40' W 009°24'0 0.1
2017-Sep-11 08:58N 38°40' W 009°24'0 0.0
2017-Sep-11 08:28N 38°40' W 009°24'0 0.0
2017-Sep-11 07:58N 38°40' W 009°24'0 0.0
2017-Sep-11 07:28N 38°40' W 009°24'0 0.0
2017-Sep-11 06:58N 38°40' W 009°24'0 0.1
2017-Sep-11 06:28N 38°40' W 009°23'0 0.0
2017-Sep-11 05:58N 38°40' W 009°23'0 0.1
2017-Sep-11 05:28N 38°40' W 009°24'0 0.2
2017-Sep-11 04:58N 38°40' W 009°24'0 0.1
2017-Sep-11 04:28N 38°40' W 009°24'0 0.0
2017-Sep-11 03:55N 38°40' W 009°24'0 0.0
2017-Sep-11 03:28N 38°40' W 009°24'0 0.0
2017-Sep-11 02:58N 38°40' W 009°24'0 0.2
2017-Sep-11 02:30N 38°40' W 009°24'1 1.4
2017-Sep-11 02:00N 38°39' W 009°23'3 5.4
2017-Sep-11 01:30N 38°36' W 009°24'2 4.5
2017-Sep-11 01:00N 38°34' W 009°24'3 5.5
2017-Sep-11 00:30N 38°31' W 009°24'3 5.5
2017-Sep-11 00:00N 38°29' W 009°24'3 5.7
2017-Sep-10 23:30N 38°26' W 009°23'3 5.7
2017-Sep-10 23:00N 38°23' W 009°23'3 5.5
2017-Sep-10 22:30N 38°20' W 009°23'3 5.6
2017-Sep-10 22:00N 38°17' W 009°23'3 5.5
2017-Sep-10 21:30N 38°15' W 009°22'3 5.0
2017-Sep-10 21:00N 38°12' W 009°22'2 4.6
2017-Sep-10 20:30N 38°10' W 009°22'2 4.1
2017-Sep-10 20:00N 38°08' W 009°22'2 3.8
2017-Sep-10 19:30N 38°06' W 009°22'2 3.9
2017-Sep-10 19:00N 38°04' W 009°22'2 3.9
2017-Sep-10 18:30N 38°02' W 009°22'2 4.1
2017-Sep-10 18:00N 37°60' W 009°22'2 4.0
2017-Sep-10 17:30N 37°58' W 009°22'2 3.7
2017-Sep-10 17:00N 37°56' W 009°22'2 3.7
2017-Sep-10 16:30N 37°54' W 009°22'2 4.1
2017-Sep-10 16:00N 37°52' W 009°22'2 4.3
2017-Sep-10 15:30N 37°50' W 009°22'2 4.6
2017-Sep-10 15:00N 37°48' W 009°22'5 4.8
2017-Sep-10 14:00N 37°43' W 009°22'2 4.8
2017-Sep-10 13:30N 37°40' W 009°22'2 4.8
2017-Sep-10 13:00N 37°38' W 009°22'2 4.9
2017-Sep-10 12:30N 37°36' W 009°21'3 5.0
2017-Sep-10 12:00N 37°33' W 009°21'12 5.2
2017-Sep-10 09:43N 37°21' W 009°21'1 5.5
2017-Sep-10 09:29N 37°20' W 009°21'4 5.2
2017-Sep-10 08:47N 37°16' W 009°21'1 5.3
2017-Sep-10 08:30N 37°15' W 009°20'20 5.0
2017-Sep-10 04:32N 36°55' W 009°18'0 4.3
2017-Sep-10 04:30N 36°55' W 009°18'3 4.2
2017-Sep-10 03:53N 36°53' W 009°17'2 4.4
2017-Sep-10 03:27N 36°51' W 009°16'2 4.2
2017-Sep-10 02:58N 36°50' W 009°14'2 4.1
2017-Sep-10 02:26N 36°48' W 009°12'2 4.0
2017-Sep-10 02:00N 36°47' W 009°10'  
Track history (hours):
 
Tides and Currents Weather Stations Pressure Air Temp Water Temp Dewpoint Dewpoint Depression Visibility Wind Speed Wind Dir Waves Ship Positions

Eseniya

Last reported at 2017-Sep-20 02:00 UTC. Time now 2017-Sep-20 01:56 UTC.
Position N 51°25' E 003°36'.

Length 99 m; draft 6.1 m.

Type: Cargo ship. MMSI: 273356870.

Date/timePositionNaut miles runAvg speedWind from/ knotsBaromVisibWave heightAir tempDewpointWater temp
2017-Sep-20 02:00N 51°25' E 003°36'510.3
2017-Sep-20 01:30N 51°25' E 003°28'612.9
2017-Sep-20 01:00N 51°24' E 003°18'613.0
2017-Sep-20 00:30N 51°23' E 003°08'612.8
2017-Sep-20 00:00N 51°22' E 002°57'613.0
2017-Sep-19 23:30N 51°22' E 002°47'711.5
2017-Sep-19 22:54N 51°22' E 002°36'612.4
2017-Sep-19 22:27N 51°21' E 002°27'612.2
2017-Sep-19 22:00N 51°18' E 002°19'611.5
2017-Sep-19 21:28N 51°15' E 002°11'510.8
2017-Sep-19 21:00N 51°12' E 002°04'510.0
2017-Sep-19 20:30N 51°10' E 001°57'5 9.3
2017-Sep-19 20:00N 51°07' E 001°51'4 8.7
2017-Sep-19 19:30N 51°05' E 001°45'4 8.8
2017-Sep-19 19:00N 51°01' E 001°41'4 7.8
2017-Sep-19 18:30N 50°58' E 001°37'4 8.8
2017-Sep-19 18:00N 50°55' E 001°32'11311.0
2017-Sep-19 07:42N 50°06' W 001°09'315.1
2017-Sep-19 07:28N 50°06' W 001°14'715.1
2017-Sep-19 07:00N 50°04' W 001°24'815.2
2017-Sep-19 06:30N 50°02' W 001°36'815.0
2017-Sep-19 06:00N 50°00' W 001°47'714.6
2017-Sep-19 05:30N 49°58' W 001°58'12410.7
2017-Sep-18 17:55N 49°03' W 004°49'511.9
2017-Sep-18 17:28N 49°00' W 004°56'612.0
2017-Sep-18 17:00N 48°58' W 005°04'612.4
2017-Sep-18 16:30N 48°55' W 005°12'612.6
2017-Sep-18 16:00N 48°51' W 005°20'712.5
2017-Sep-18 15:29N 48°48' W 005°29'  
2017-Sep-16 07:58N 39°24' W 009°51'4 8.8
2017-Sep-16 07:30N 39°20' W 009°51'4 8.8
2017-Sep-16 07:00N 39°16' W 009°51'4 8.9
2017-Sep-16 06:31N 39°12' W 009°51'4 8.8
2017-Sep-16 06:00N 39°07' W 009°51'4 8.6
2017-Sep-16 05:30N 39°03' W 009°51'3 5.2
2017-Sep-16 05:01N 39°00' W 009°51'4 8.9
2017-Sep-16 04:30N 38°56' W 009°51'4 8.7
2017-Sep-16 04:00N 38°51' W 009°51'4 8.8
2017-Sep-16 03:31N 38°47' W 009°51'4 8.7
2017-Sep-16 03:00N 38°43' W 009°50'4 8.7
2017-Sep-16 02:31N 38°39' W 009°49'4 8.8
2017-Sep-16 02:01N 38°38' W 009°43'5 9.9
2017-Sep-16 01:31N 38°37' W 009°37'5 9.7
2017-Sep-16 01:00N 38°37' W 009°31'510.1
2017-Sep-16 00:30N 38°37' W 009°24'5 9.5
2017-Sep-16 00:01N 38°39' W 009°19'4 8.9
2017-Sep-15 23:30N 38°41' W 009°14'4 8.9
2017-Sep-15 23:00N 38°41' W 009°08'3 4.2
2017-Sep-15 22:12N 38°40' W 009°04'0 0.0
2017-Sep-15 19:48N 38°40' W 009°04'0 0.0
2017-Sep-15 17:27N 38°40' W 009°04'0 0.0
2017-Sep-15 16:48N 38°40' W 009°04'0 0.0
2017-Sep-15 15:03N 38°40' W 009°04'0 0.0
2017-Sep-15 15:00N 38°40' W 009°04'0 0.0
2017-Sep-15 14:27N 38°40' W 009°04'0 0.0
2017-Sep-15 10:57N 38°40' W 009°04'0 0.0
2017-Sep-15 08:54N 38°40' W 009°04'0 0.0
2017-Sep-15 08:00N 38°40' W 009°04'0 0.0
2017-Sep-15 05:57N 38°40' W 009°04'0 0.0
2017-Sep-15 04:33N 38°40' W 009°04'0 0.0
2017-Sep-15 04:21N 38°40' W 009°04'0 0.0
2017-Sep-15 04:00N 38°40' W 009°04'0 0.0
2017-Sep-15 03:30N 38°40' W 009°04'0 0.0
2017-Sep-15 02:57N 38°40' W 009°04'0 0.0
2017-Sep-15 02:21N 38°40' W 009°04'0 0.0
2017-Sep-15 01:45N 38°40' W 009°04'0 0.0
2017-Sep-15 01:24N 38°40' W 009°04'0 0.0
2017-Sep-15 00:51N 38°40' W 009°04'0 0.0
2017-Sep-15 00:27N 38°40' W 009°04'0 0.0
2017-Sep-14 23:09N 38°40' W 009°04'0 0.0
2017-Sep-14 22:15N 38°40' W 009°04'0 0.0
2017-Sep-14 21:45N 38°40' W 009°04'0 0.0
2017-Sep-14 20:00N 38°40' W 009°04'0 0.0
2017-Sep-14 19:12N 38°40' W 009°04'0 0.0
2017-Sep-14 18:54N 38°40' W 009°04'0 0.0
2017-Sep-14 18:27N 38°40' W 009°04'0 0.0
2017-Sep-14 17:59N 38°40' W 009°04'1 2.0
2017-Sep-14 17:30N 38°40' W 009°05'3 6.6
2017-Sep-14 17:00N 38°41' W 009°10'3 6.9
2017-Sep-14 16:30N 38°41' W 009°14'3 5.4
2017-Sep-14 16:00N 38°41' W 009°17'3 5.4
2017-Sep-14 15:30N 38°39' W 009°20'2 4.5
2017-Sep-14 15:00N 38°39' W 009°23'1 1.4
2017-Sep-14 14:29N 38°40' W 009°24'0 0.1
2017-Sep-14 13:53N 38°40' W 009°24'0 0.0
2017-Sep-14 13:29N 38°40' W 009°24'0 0.0
2017-Sep-14 12:56N 38°40' W 009°24'0 0.0
2017-Sep-14 12:26N 38°40' W 009°24'0 0.0
2017-Sep-14 11:56N 38°40' W 009°24'0 0.0
2017-Sep-14 11:29N 38°40' W 009°24'0 0.0
2017-Sep-14 10:59N 38°40' W 009°24'0 0.1
2017-Sep-14 10:29N 38°40' W 009°23'0 0.0
2017-Sep-14 09:59N 38°40' W 009°23'0 0.1
2017-Sep-14 09:29N 38°40' W 009°23'0 0.1
2017-Sep-14 08:59N 38°40' W 009°24'0 0.0
2017-Sep-14 08:29N 38°40' W 009°23'0 0.0
2017-Sep-14 07:59N 38°40' W 009°24'0 0.0
2017-Sep-14 07:29N 38°40' W 009°24'0 0.0
2017-Sep-14 06:59N 38°40' W 009°24'0 0.0
2017-Sep-14 06:29N 38°40' W 009°24'0 0.0
2017-Sep-14 05:59N 38°40' W 009°24'0 0.1
2017-Sep-14 05:29N 38°40' W 009°24'0 0.1
2017-Sep-14 04:59N 38°40' W 009°24'0 0.0
2017-Sep-14 04:29N 38°40' W 009°24'0 0.1
2017-Sep-14 03:59N 38°40' W 009°24'0 0.1
2017-Sep-14 03:23N 38°40' W 009°24'0 0.0
2017-Sep-14 02:59N 38°40' W 009°24'0 0.0
2017-Sep-14 02:29N 38°40' W 009°24'0 0.0
2017-Sep-14 01:59N 38°40' W 009°24'0 0.0
2017-Sep-14 01:29N 38°40' W 009°24'0 0.0
2017-Sep-14 00:59N 38°40' W 009°24'0 0.0
2017-Sep-14 00:29N 38°40' W 009°24'0 0.0
2017-Sep-13 23:59N 38°40' W 009°24'0 0.0
2017-Sep-13 23:29N 38°40' W 009°24'0 0.0
2017-Sep-13 22:59N 38°40' W 009°24'0 0.0
2017-Sep-13 22:29N 38°40' W 009°24'0 0.0
2017-Sep-13 21:59N 38°40' W 009°24'0 0.0
2017-Sep-13 21:29N 38°40' W 009°24'0 0.0
2017-Sep-13 20:56N 38°40' W 009°24'0 0.0
2017-Sep-13 20:29N 38°40' W 009°24'0 0.0
2017-Sep-13 19:59N 38°40' W 009°24'0 0.0
2017-Sep-13 19:29N 38°40' W 009°24'0 0.0
2017-Sep-13 18:53N 38°40' W 009°24'0 0.0
2017-Sep-13 18:29N 38°40' W 009°24'0 0.0
2017-Sep-13 17:59N 38°40' W 009°24'0 0.0
2017-Sep-13 17:29N 38°40' W 009°24'0 0.0
2017-Sep-13 16:59N 38°40' W 009°24'0 0.0
2017-Sep-13 16:29N 38°40' W 009°24'0 0.0
2017-Sep-13 15:59N 38°40' W 009°24'0 0.0
2017-Sep-13 15:29N 38°40' W 009°24'0 0.0
2017-Sep-13 14:59N 38°40' W 009°24'0 0.0
2017-Sep-13 14:29N 38°40' W 009°23'0 0.0
2017-Sep-13 13:59N 38°40' W 009°23'0 0.0
2017-Sep-13 13:29N 38°40' W 009°23'0 0.0
2017-Sep-13 12:59N 38°40' W 009°23'0 0.0
2017-Sep-13 12:29N 38°40' W 009°23'0 0.0
2017-Sep-13 11:59N 38°40' W 009°23'0 0.0
2017-Sep-13 11:29N 38°40' W 009°23'0 0.0
2017-Sep-13 10:59N 38°40' W 009°23'0 0.0
2017-Sep-13 10:26N 38°40' W 009°23'0 0.1
2017-Sep-13 09:59N 38°40' W 009°24'0 0.0
2017-Sep-13 09:29N 38°40' W 009°24'0 0.0
2017-Sep-13 08:59N 38°40' W 009°24'0 0.0
2017-Sep-13 08:29N 38°40' W 009°24'0 0.0
2017-Sep-13 07:59N 38°40' W 009°24'0 0.0
2017-Sep-13 07:29N 38°40' W 009°24'0 0.0
2017-Sep-13 06:59N 38°40' W 009°24'0 0.0
2017-Sep-13 06:29N 38°40' W 009°23'0 0.1
2017-Sep-13 05:59N 38°40' W 009°24'0 0.1
2017-Sep-13 05:29N 38°40' W 009°24'0 0.1
2017-Sep-13 04:59N 38°40' W 009°24'0 0.0
2017-Sep-13 04:29N 38°40' W 009°24'0 0.0
2017-Sep-13 03:56N 38°40' W 009°24'0 0.1
2017-Sep-13 03:26N 38°40' W 009°24'0 0.0
2017-Sep-13 02:59N 38°40' W 009°24'0 0.0
2017-Sep-13 02:29N 38°40' W 009°24'0 0.0
2017-Sep-13 01:59N 38°40' W 009°24'0 0.0
2017-Sep-13 01:29N 38°40' W 009°24'0 0.0
2017-Sep-13 00:59N 38°40' W 009°24'0 0.0
2017-Sep-13 00:29N 38°40' W 009°24'0 0.0
2017-Sep-12 23:59N 38°40' W 009°24'0 0.1
2017-Sep-12 23:29N 38°40' W 009°24'0 0.0
2017-Sep-12 22:59N 38°40' W 009°24'0 0.1
2017-Sep-12 22:29N 38°40' W 009°24'0 0.0
2017-Sep-12 21:59N 38°40' W 009°24'0 0.0
2017-Sep-12 21:26N 38°40' W 009°24'0 0.0
2017-Sep-12 20:59N 38°40' W 009°24'0 0.0
2017-Sep-12 20:29N 38°40' W 009°24'0 0.0
2017-Sep-12 19:59N 38°40' W 009°24'0 0.0
2017-Sep-12 19:29N 38°40' W 009°24'0 0.1
2017-Sep-12 18:59N 38°40' W 009°24'0 0.0
2017-Sep-12 18:29N 38°40' W 009°24'0 0.0
2017-Sep-12 17:59N 38°40' W 009°24'0 0.0
2017-Sep-12 17:29N 38°40' W 009°24'0 0.0
2017-Sep-12 16:59N 38°40' W 009°24'0 0.0
2017-Sep-12 16:29N 38°40' W 009°23'0 0.0
2017-Sep-12 15:59N 38°40' W 009°24'0 0.0
2017-Sep-12 15:29N 38°40' W 009°23'0 0.0
2017-Sep-12 14:59N 38°40' W 009°23'0 0.0
2017-Sep-12 14:29N 38°40' W 009°23'0 0.0
2017-Sep-12 13:59N 38°40' W 009°24'0 0.0
2017-Sep-12 13:29N 38°40' W 009°24'0 0.0
2017-Sep-12 12:59N 38°40' W 009°24'0 0.0
2017-Sep-12 12:29N 38°40' W 009°24'0 0.0
2017-Sep-12 11:56N 38°40' W 009°24'0 0.1
2017-Sep-12 11:29N 38°40' W 009°24'0 0.0
2017-Sep-12 10:59N 38°40' W 009°24'0 0.0
2017-Sep-12 10:29N 38°40' W 009°24'0 0.0
2017-Sep-12 09:59N 38°40' W 009°24'0 0.0
2017-Sep-12 09:26N 38°40' W 009°24'0 0.0
2017-Sep-12 08:59N 38°40' W 009°24'0 0.0
2017-Sep-12 08:29N 38°40' W 009°24'0 0.0
2017-Sep-12 07:59N 38°40' W 009°24'0 0.0
2017-Sep-12 07:29N 38°40' W 009°24'0 0.0
2017-Sep-12 06:59N 38°40' W 009°24'0 0.0
2017-Sep-12 06:29N 38°40' W 009°24'0 0.0
2017-Sep-12 05:59N 38°40' W 009°24'0 0.0
2017-Sep-12 05:29N 38°40' W 009°24'0 0.0
2017-Sep-12 04:59N 38°40' W 009°24'0 0.0
2017-Sep-12 04:29N 38°40' W 009°24'0 0.0
2017-Sep-12 03:56N 38°40' W 009°24'0 0.0
2017-Sep-12 03:29N 38°40' W 009°24'0 0.0
2017-Sep-12 02:59N 38°40' W 009°24'0 0.0
2017-Sep-12 02:29N 38°40' W 009°24'0 0.0
2017-Sep-12 01:59N 38°40' W 009°24'0 0.0
2017-Sep-12 01:29N 38°40' W 009°24'0 0.0
2017-Sep-12 00:59N 38°40' W 009°24'0 0.0
2017-Sep-12 00:29N 38°40' W 009°24'0 0.1
2017-Sep-11 23:59N 38°40' W 009°24'0 0.0
2017-Sep-11 23:29N 38°40' W 009°24'0 0.0
2017-Sep-11 22:59N 38°40' W 009°24'0 0.0
2017-Sep-11 22:29N 38°40' W 009°24'0 0.0
2017-Sep-11 21:59N 38°40' W 009°24'0 0.0
2017-Sep-11 21:29N 38°40' W 009°24'0 0.0
2017-Sep-11 20:59N 38°40' W 009°24'0 0.0
2017-Sep-11 20:29N 38°40' W 009°24'0 0.1
2017-Sep-11 19:58N 38°40' W 009°24'0 0.0
2017-Sep-11 19:28N 38°40' W 009°24'0 0.0
2017-Sep-11 18:58N 38°40' W 009°24'0 0.1
2017-Sep-11 18:28N 38°40' W 009°23'0 0.1
2017-Sep-11 17:58N 38°40' W 009°23'0 0.0
2017-Sep-11 17:28N 38°40' W 009°23'0 0.0
2017-Sep-11 16:58N 38°40' W 009°23'0 0.0
2017-Sep-11 16:28N 38°40' W 009°23'0 0.0
2017-Sep-11 15:58N 38°40' W 009°23'0 0.0
2017-Sep-11 15:28N 38°40' W 009°23'0 0.0
2017-Sep-11 14:58N 38°40' W 009°23'0 0.0
2017-Sep-11 14:28N 38°40' W 009°23'0 0.0
2017-Sep-11 13:58N 38°40' W 009°23'0 0.0
2017-Sep-11 13:25N 38°40' W 009°23'0 0.1
2017-Sep-11 12:58N 38°40' W 009°23'0 0.0
2017-Sep-11 12:28N 38°40' W 009°23'0 0.0
2017-Sep-11 11:58N 38°40' W 009°23'0 0.0
2017-Sep-11 11:28N 38°40' W 009°23'0 0.0
2017-Sep-11 10:58N 38°40' W 009°23'0 0.0
2017-Sep-11 10:28N 38°40' W 009°23'0 0.1
2017-Sep-11 09:52N 38°40' W 009°24'0 0.1
2017-Sep-11 09:28N 38°40' W 009°24'0 0.1
2017-Sep-11 08:58N 38°40' W 009°24'0 0.0
2017-Sep-11 08:28N 38°40' W 009°24'0 0.0
2017-Sep-11 07:58N 38°40' W 009°24'0 0.0
2017-Sep-11 07:28N 38°40' W 009°24'0 0.0
2017-Sep-11 06:58N 38°40' W 009°24'0 0.1
2017-Sep-11 06:28N 38°40' W 009°23'0 0.0
2017-Sep-11 05:58N 38°40' W 009°23'0 0.1
2017-Sep-11 05:28N 38°40' W 009°24'0 0.2
2017-Sep-11 04:58N 38°40' W 009°24'0 0.1
2017-Sep-11 04:28N 38°40' W 009°24'0 0.0
2017-Sep-11 03:55N 38°40' W 009°24'0 0.0
2017-Sep-11 03:28N 38°40' W 009°24'0 0.0
2017-Sep-11 02:58N 38°40' W 009°24'0 0.2
2017-Sep-11 02:30N 38°40' W 009°24'1 1.4
2017-Sep-11 02:00N 38°39' W 009°23'3 5.4
2017-Sep-11 01:30N 38°36' W 009°24'2 4.5
2017-Sep-11 01:00N 38°34' W 009°24'3 5.5
2017-Sep-11 00:30N 38°31' W 009°24'3 5.5
2017-Sep-11 00:00N 38°29' W 009°24'3 5.7
2017-Sep-10 23:30N 38°26' W 009°23'3 5.7
2017-Sep-10 23:00N 38°23' W 009°23'3 5.5
2017-Sep-10 22:30N 38°20' W 009°23'3 5.6
2017-Sep-10 22:00N 38°17' W 009°23'3 5.5
2017-Sep-10 21:30N 38°15' W 009°22'3 5.0
2017-Sep-10 21:00N 38°12' W 009°22'2 4.6
2017-Sep-10 20:30N 38°10' W 009°22'2 4.1
2017-Sep-10 20:00N 38°08' W 009°22'2 3.8
2017-Sep-10 19:30N 38°06' W 009°22'2 3.9
2017-Sep-10 19:00N 38°04' W 009°22'2 3.9
2017-Sep-10 18:30N 38°02' W 009°22'2 4.1
2017-Sep-10 18:00N 37°60' W 009°22'2 4.0
2017-Sep-10 17:30N 37°58' W 009°22'2 3.7
2017-Sep-10 17:00N 37°56' W 009°22'2 3.7
2017-Sep-10 16:30N 37°54' W 009°22'2 4.1
2017-Sep-10 16:00N 37°52' W 009°22'2 4.3
2017-Sep-10 15:30N 37°50' W 009°22'2 4.6
2017-Sep-10 15:00N 37°48' W 009°22'5 4.8
2017-Sep-10 14:00N 37°43' W 009°22'2 4.8
2017-Sep-10 13:30N 37°40' W 009°22'2 4.8
2017-Sep-10 13:00N 37°38' W 009°22'2 4.9
2017-Sep-10 12:30N 37°36' W 009°21'3 5.0
2017-Sep-10 12:00N 37°33' W 009°21'12 5.2
2017-Sep-10 09:43N 37°21' W 009°21'1 5.5
2017-Sep-10 09:29N 37°20' W 009°21'4 5.2
2017-Sep-10 08:47N 37°16' W 009°21'1 5.3
2017-Sep-10 08:30N 37°15' W 009°20'20 5.0
2017-Sep-10 04:32N 36°55' W 009°18'0 4.3
2017-Sep-10 04:30N 36°55' W 009°18'3 4.2
2017-Sep-10 03:53N 36°53' W 009°17'2 4.4
2017-Sep-10 03:27N 36°51' W 009°16'2 4.2
2017-Sep-10 02:58N 36°50' W 009°14'2 4.1
2017-Sep-10 02:26N 36°48' W 009°12'2 4.0
2017-Sep-10 02:00N 36°47' W 009°10'  

Dump ship's entire track history